KSRQ

Sarasota / Bradenton International Airport

Sarasota/Bradenton, Florida, USA
KSRQ 221125Z 2212/2312 08008KT P6SM SKC FM221500 12013G22KT P6SM SCT030 FM221800 10016G25KT P6SM BKN050 FM230100 10012KT P6SM BKN050
Issued Valid From Valid To
Jan-22 @ 11:25 UTC
(6 hours ago)
Jan-22 @ 12:00 UTC
(5 hours ago)
Jan-23 @ 12:00 UTC
(in 19 hours)
Expired Click to View Jan-22 @ 12:00 to Jan-22 @ 15:00
KSRQ 221125Z 2212/2312 08008KT P6SM SKC
Wind Visibility Clouds
80° at 8 knots Greater than 6 miles
  • Clear skies
From Jan-22 @ 15:00 to Jan-22 @ 18:00
FM221500 12013G22KT P6SM SCT030
Wind Visibility Clouds
120° at 13 knots
 Gusting to 22 knots
Greater than 6 miles
  • Scattered at 3,000' AGL
From Jan-22 @ 18:00 to Jan-23 @ 01:00
FM221800 10016G25KT P6SM BKN050
Wind Visibility Clouds
100° at 16 knots
 Gusting to 25 knots
Greater than 6 miles
  • Broken at 5,000' AGL
From Jan-23 @ 01:00 to Jan-23 @ 12:00
FM230100 10012KT P6SM BKN050
Wind Visibility Clouds
100° at 12 knots Greater than 6 miles
  • Broken at 5,000' AGL
KSRQ 221125Z 2212/2312 08008KT P6SM SKC FM221500 12013G22KT P6SM SCT030 FM221800 10016G25KT P6SM BKN050 FM230100 10012KT P6SM BKN050
Issued Jan-22 @ 11:25 UTC
(6 hours ago)
Valid From Jan-22 @ 12:00 UTC
(5 hours ago)
Valid To Jan-23 @ 12:00 UTC
(in 19 hours)
Jan-22 @ 12:00 - Jan-22 @ 15:00
Wind Visibility
80° at 8 knots Greater than 6 miles
Clouds
  • Clear skies
From Jan-22 @ 15:00 - Jan-22 @ 18:00
Wind Visibility
120° at 13 knots
 Gusting to 22 knots
Greater than 6 miles
Clouds
  • Scattered at 3,000' AGL
From Jan-22 @ 18:00 - Jan-23 @ 01:00
Wind Visibility
100° at 16 knots
 Gusting to 25 knots
Greater than 6 miles
Clouds
  • Broken at 5,000' AGL
From Jan-23 @ 01:00 - Jan-23 @ 12:00
Wind Visibility
100° at 12 knots Greater than 6 miles
Clouds
  • Broken at 5,000' AGL